Cub — WZY7370 — position and weather

sailwx.info

Track history (hours):
 
Tides and Currents Weather Stations Pressure Air Temp Water Temp Dewpoint Dewpoint Depression Visibility Wind Speed Wind Dir Waves Ship Positions

Cub

Owner: CALIFORNIA, STATE OF, SACRAMENTO, CA. More information available from US FCC via Universal Licensing System.

Last reported at 2018-Feb-22 22:50 UTC. Time now 2018-Feb-23 16:24 UTC.
Position N 38°04' W 122°14'.

Length 20 m; draft 2 m.

Type: Pleasure craft. MMSI: 366984060.

Date/timePositionNaut miles runAvg speedWind from/ knotsBaromVisibWave heightAir tempDewpointWater temp
2018-Feb-22 22:50N 38°04' W 122°14'1 1.9
2018-Feb-22 22:30N 38°04' W 122°15'4 7.8
2018-Feb-22 22:00N 38°03' W 122°19'0 0.8
2018-Feb-22 21:26N 38°03' W 122°20'5 9.8
2018-Feb-22 20:58N 38°04' W 122°14'0 0.2
2018-Feb-22 18:41N 38°04' W 122°14'0 0.3
2018-Feb-22 18:30N 38°04' W 122°14'4 4.6
2018-Feb-22 17:39N 38°03' W 122°19'3 7.4
2018-Feb-22 17:15N 38°02' W 122°22'2 7.1
2018-Feb-22 16:57N 38°03' W 122°20'4 9.5
2018-Feb-22 16:29N 38°04' W 122°14'5 0.2
2018-Feb-21 18:33N 38°02' W 122°21'1 4.4
2018-Feb-21 18:13N 38°02' W 122°22'310.3
2018-Feb-21 17:52N 38°03' W 122°18'4 0.2
2018-Feb-20 22:54N 38°04' W 122°14'4 6.4
2018-Feb-20 22:18N 38°03' W 122°19'3 8.6
2018-Feb-20 21:58N 38°02' W 122°22'3 7.1
2018-Feb-20 21:30N 38°03' W 122°18'3 7.0
2018-Feb-20 21:00N 38°04' W 122°14'0 0.0
2018-Feb-20 18:37N 38°04' W 122°14'0 0.4
2018-Feb-20 18:30N 38°04' W 122°14'5 6.0
2018-Feb-20 17:37N 38°02' W 122°20'2 6.2
2018-Feb-20 17:20N 38°02' W 122°22'3 6.3
2018-Feb-20 16:51N 38°03' W 122°19'411.1
2018-Feb-20 16:30N 38°04' W 122°14'0 0.3
2018-Feb-20 15:52N 38°04' W 122°14'  
2018-Feb-15 22:56N 38°04' W 122°14'4 4.9
2018-Feb-15 22:06N 38°07' W 122°17'2 6.8
2018-Feb-15 21:45N 38°09' W 122°18'2 7.8
2018-Feb-15 21:28N 38°07' W 122°17'4 8.4
2018-Feb-15 21:00N 38°04' W 122°14'0 0.2
2018-Feb-15 18:58N 38°04' W 122°14'0 0.0
2018-Feb-15 18:29N 38°04' W 122°14'6 5.5
2018-Feb-15 17:28N 38°09' W 122°17'4 6.3
2018-Feb-15 16:47N 38°05' W 122°15'1 3.6
2018-Feb-15 16:24N 38°04' W 122°14'0 0.0
2018-Feb-14 19:31N 38°04' W 122°14'0 0.0
2018-Feb-14 19:29N 38°04' W 122°14'2 4.4
2018-Feb-14 19:00N 38°06' W 122°16'3 6.5
2018-Feb-14 18:29N 38°09' W 122°17'1 3.1
2018-Feb-14 18:00N 38°07' W 122°17'4 0.2
2018-Feb-13 22:48N 38°04' W 122°14'0 0.2
2018-Feb-13 21:05N 38°04' W 122°14'0 0.2
2018-Feb-13 18:33N 38°04' W 122°14'0 1.1
2018-Feb-13 18:30N 38°04' W 122°14'1 0.4
2018-Feb-13 16:42N 38°04' W 122°15'  
Track history (hours):
 
Tides and Currents Weather Stations Pressure Air Temp Water Temp Dewpoint Dewpoint Depression Visibility Wind Speed Wind Dir Waves Ship Positions

Cub

Owner: CALIFORNIA, STATE OF, SACRAMENTO, CA. More information available from US FCC via Universal Licensing System.

Last reported at 2018-Feb-22 22:50 UTC. Time now 2018-Feb-23 16:24 UTC.
Position N 38°04' W 122°14'.

Length 20 m; draft 2 m.

Type: Pleasure craft. MMSI: 366984060.

Date/timePositionNaut miles runAvg speedWind from/ knotsBaromVisibWave heightAir tempDewpointWater temp
2018-Feb-22 22:50N 38°04' W 122°14'1 1.9
2018-Feb-22 22:30N 38°04' W 122°15'4 7.8
2018-Feb-22 22:00N 38°03' W 122°19'0 0.8
2018-Feb-22 21:26N 38°03' W 122°20'5 9.8
2018-Feb-22 20:58N 38°04' W 122°14'0 0.2
2018-Feb-22 18:41N 38°04' W 122°14'0 0.3
2018-Feb-22 18:30N 38°04' W 122°14'4 4.6
2018-Feb-22 17:39N 38°03' W 122°19'3 7.4
2018-Feb-22 17:15N 38°02' W 122°22'2 7.1
2018-Feb-22 16:57N 38°03' W 122°20'4 9.5
2018-Feb-22 16:29N 38°04' W 122°14'5 0.2
2018-Feb-21 18:33N 38°02' W 122°21'1 4.4
2018-Feb-21 18:13N 38°02' W 122°22'310.3
2018-Feb-21 17:52N 38°03' W 122°18'4 0.2
2018-Feb-20 22:54N 38°04' W 122°14'4 6.4
2018-Feb-20 22:18N 38°03' W 122°19'3 8.6
2018-Feb-20 21:58N 38°02' W 122°22'3 7.1
2018-Feb-20 21:30N 38°03' W 122°18'3 7.0
2018-Feb-20 21:00N 38°04' W 122°14'0 0.0
2018-Feb-20 18:37N 38°04' W 122°14'0 0.4
2018-Feb-20 18:30N 38°04' W 122°14'5 6.0
2018-Feb-20 17:37N 38°02' W 122°20'2 6.2
2018-Feb-20 17:20N 38°02' W 122°22'3 6.3
2018-Feb-20 16:51N 38°03' W 122°19'411.1
2018-Feb-20 16:30N 38°04' W 122°14'0 0.3
2018-Feb-20 15:52N 38°04' W 122°14'  
2018-Feb-15 22:56N 38°04' W 122°14'4 4.9
2018-Feb-15 22:06N 38°07' W 122°17'2 6.8
2018-Feb-15 21:45N 38°09' W 122°18'2 7.8
2018-Feb-15 21:28N 38°07' W 122°17'4 8.4
2018-Feb-15 21:00N 38°04' W 122°14'0 0.2
2018-Feb-15 18:58N 38°04' W 122°14'0 0.0
2018-Feb-15 18:29N 38°04' W 122°14'6 5.5
2018-Feb-15 17:28N 38°09' W 122°17'4 6.3
2018-Feb-15 16:47N 38°05' W 122°15'1 3.6
2018-Feb-15 16:24N 38°04' W 122°14'0 0.0
2018-Feb-14 19:31N 38°04' W 122°14'0 0.0
2018-Feb-14 19:29N 38°04' W 122°14'2 4.4
2018-Feb-14 19:00N 38°06' W 122°16'3 6.5
2018-Feb-14 18:29N 38°09' W 122°17'1 3.1
2018-Feb-14 18:00N 38°07' W 122°17'4 0.2
2018-Feb-13 22:48N 38°04' W 122°14'0 0.2
2018-Feb-13 21:05N 38°04' W 122°14'0 0.2
2018-Feb-13 18:33N 38°04' W 122°14'0 1.1
2018-Feb-13 18:30N 38°04' W 122°14'1 0.4
2018-Feb-13 16:42N 38°04' W 122°15'  

Dump ship's entire track history